createdAt,value
2022-12-15T00:00:49.888Z,4.10
2022-12-15T00:03:50.889Z,4.53
2022-12-15T00:06:52.299Z,4.40
2022-12-15T00:09:53.115Z,4.90
2022-12-15T00:12:55.625Z,5.13
2022-12-15T00:15:56.877Z,5.27
2022-12-15T00:18:57.689Z,6.67
2022-12-15T00:21:59.116Z,6.90
2022-12-15T00:24:59.882Z,7.50
2022-12-15T00:28:02.413Z,7.23
2022-12-15T00:31:03.904Z,7.77
2022-12-15T00:34:05.280Z,7.90
2022-12-15T00:37:06.245Z,8.83
2022-12-15T00:39:58.840Z,7.13
2022-12-15T00:42:42.599Z,7.73
2022-12-15T00:45:47.779Z,7.67
2022-12-15T00:48:30.590Z,7.80
2022-12-15T00:51:14.926Z,7.50
2022-12-15T00:54:18.142Z,7.50
2022-12-15T00:57:19.737Z,7.77
2022-12-15T01:00:21.137Z,7.77
2022-12-15T01:03:30.555Z,7.63
2022-12-15T01:06:35.039Z,8.00
2022-12-15T01:09:36.543Z,8.47
2022-12-15T01:12:38.075Z,7.60
2022-12-15T01:15:39.587Z,8.20
2022-12-15T01:18:42.779Z,8.57
2022-12-15T01:21:26.927Z,8.57
2022-12-15T01:24:10.751Z,9.43
2022-12-15T01:26:54.654Z,8.30
2022-12-15T01:29:38.444Z,9.23
2022-12-15T01:32:22.208Z,8.83
2022-12-15T01:35:08.802Z,9.53
2022-12-15T01:37:52.624Z,9.30
2022-12-15T01:40:46.152Z,10.10
2022-12-15T01:43:32.678Z,10.33
2022-12-15T01:46:18.781Z,10.67
2022-12-15T01:49:15.723Z,10.00
2022-12-15T01:52:03.337Z,9.77
2022-12-15T01:54:51.049Z,9.73
2022-12-15T01:57:36.680Z,9.07
2022-12-15T02:00:20.594Z,8.90
2022-12-15T02:03:07.782Z,9.60
2022-12-15T02:05:53.407Z,7.83
2022-12-15T02:08:39.231Z,5.90
2022-12-15T02:11:53.580Z,6.30
2022-12-15T02:14:52.271Z,7.87
2022-12-15T02:17:42.270Z,8.10
2022-12-15T02:20:51.260Z,7.43
2022-12-15T02:24:08.067Z,6.27
2022-12-15T02:27:16.953Z,6.93
2022-12-15T02:30:22.020Z,6.30
2022-12-15T02:33:12.543Z,6.50
2022-12-15T02:36:00.649Z,7.03
2022-12-15T02:38:45.170Z,6.97
2022-12-15T02:41:37.990Z,6.97
2022-12-15T02:44:27.857Z,7.30
2022-12-15T02:47:22.244Z,7.50
2022-12-15T02:50:27.545Z,6.47
2022-12-15T02:53:30.822Z,6.80
2022-12-15T02:56:24.110Z,7.60
2022-12-15T02:59:12.084Z,7.63
2022-12-15T03:02:00.901Z,7.77
2022-12-15T03:04:46.271Z,7.43
2022-12-15T03:07:30.001Z,8.53
2022-12-15T03:10:15.356Z,7.53
2022-12-15T03:13:00.075Z,7.83
2022-12-15T03:15:43.841Z,7.50
2022-12-15T03:18:27.519Z,8.40
2022-12-15T03:21:12.611Z,8.90
2022-12-15T03:23:56.370Z,9.20
2022-12-15T03:26:40.028Z,8.57
2022-12-15T03:29:23.942Z,13.07
2022-12-15T03:32:08.395Z,11.60
2022-12-15T03:34:52.088Z,12.00
2022-12-15T03:37:37.205Z,12.70
2022-12-15T03:40:20.969Z,12.50
2022-12-15T03:43:04.729Z,11.73
2022-12-15T03:45:48.518Z,12.60
2022-12-15T03:48:32.154Z,12.13
2022-12-15T03:51:15.852Z,12.30
2022-12-15T03:54:01.236Z,12.10
2022-12-15T03:56:45.646Z,12.47
2022-12-15T03:59:29.354Z,11.87
2022-12-15T04:02:14.686Z,12.90
2022-12-15T04:04:58.520Z,12.90
2022-12-15T04:07:42.300Z,13.50
2022-12-15T04:10:33.900Z,13.23
2022-12-15T04:13:18.873Z,14.83
2022-12-15T04:16:03.140Z,13.80
2022-12-15T04:18:46.907Z,14.53
2022-12-15T04:21:29.592Z,15.47
2022-12-15T04:24:30.903Z,15.93
2022-12-15T04:27:33.243Z,16.10
2022-12-15T04:30:34.962Z,16.63
2022-12-15T04:33:36.821Z,17.23
2022-12-15T04:36:38.502Z,17.60
2022-12-15T04:39:39.758Z,18.83
2022-12-15T04:42:43.629Z,22.93
2022-12-15T04:45:44.589Z,20.43
2022-12-15T04:48:45.415Z,19.27
2022-12-15T04:51:46.340Z,19.43
2022-12-15T04:54:47.393Z,18.60
2022-12-15T04:57:49.868Z,18.70
2022-12-15T05:00:51.344Z,17.93
2022-12-15T05:03:52.152Z,18.67
2022-12-15T05:06:53.327Z,18.60
2022-12-15T05:09:57.313Z,18.40
2022-12-15T05:13:03.441Z,16.27
2022-12-15T05:16:04.632Z,18.60
2022-12-15T05:19:05.540Z,18.30
2022-12-15T05:22:06.910Z,18.83
2022-12-15T05:25:07.759Z,17.53
2022-12-15T05:28:10.630Z,17.77
2022-12-15T05:31:12.065Z,19.07
2022-12-15T05:34:02.634Z,19.30
2022-12-15T05:36:49.244Z,19.57
2022-12-15T05:39:33.072Z,19.63
2022-12-15T05:42:16.791Z,18.93
2022-12-15T05:45:01.916Z,19.00
2022-12-15T05:47:53.911Z,20.27
2022-12-15T05:50:37.613Z,18.57
2022-12-15T05:53:23.401Z,18.93
2022-12-15T05:56:09.213Z,19.93
2022-12-15T05:58:53.049Z,18.30
2022-12-15T06:01:38.285Z,20.13
2022-12-15T06:04:22.104Z,18.90
2022-12-15T06:07:05.936Z,18.27
2022-12-15T06:09:49.951Z,19.23
2022-12-15T06:12:33.659Z,22.47
2022-12-15T06:15:17.819Z,20.43
2022-12-15T06:18:02.889Z,19.40
2022-12-15T06:20:46.574Z,19.07
2022-12-15T06:23:34.350Z,20.80
2022-12-15T06:26:21.684Z,20.17
2022-12-15T06:29:07.759Z,18.93
2022-12-15T06:31:51.768Z,19.77
2022-12-15T06:34:37.203Z,22.60
2022-12-15T06:37:21.104Z,21.30
2022-12-15T06:40:05.399Z,24.20
2022-12-15T06:42:49.209Z,25.23
2022-12-15T06:45:32.944Z,23.53
2022-12-15T06:48:16.774Z,22.00
2022-12-15T06:51:06.220Z,18.40
2022-12-15T06:53:52.672Z,17.60
2022-12-15T06:56:37.507Z,18.10
2022-12-15T06:59:21.278Z,19.60
2022-12-15T07:02:05.026Z,20.37
2022-12-15T07:04:48.789Z,31.00
2022-12-15T07:07:33.901Z,44.07
2022-12-15T07:10:17.930Z,44.27
2022-12-15T07:13:01.636Z,41.07
2022-12-15T07:15:45.447Z,32.73
2022-12-15T07:18:29.664Z,33.37
2022-12-15T07:21:13.874Z,24.13
2022-12-15T07:23:59.808Z,19.47
2022-12-15T07:26:46.140Z,23.57
2022-12-15T07:29:32.999Z,24.03
2022-12-15T07:32:16.943Z,22.40
2022-12-15T07:35:00.857Z,21.40
2022-12-15T07:37:44.723Z,22.33
2022-12-15T07:40:29.798Z,21.97
2022-12-15T07:43:13.531Z,23.17
2022-12-15T07:45:57.338Z,22.87
2022-12-15T07:48:41.089Z,24.47
2022-12-15T07:51:24.747Z,23.33
2022-12-15T07:54:08.893Z,20.53
2022-12-15T07:56:54.088Z,20.63
2022-12-15T07:59:38.147Z,20.50
2022-12-15T08:02:22.143Z,21.13
2022-12-15T08:05:06.604Z,19.50
2022-12-15T08:07:50.357Z,22.43
2022-12-15T08:10:34.243Z,20.10
2022-12-15T08:13:52.480Z,20.63
2022-12-15T08:16:23.361Z,22.93
2022-12-15T08:19:08.539Z,20.60
2022-12-15T08:21:52.271Z,19.63
2022-12-15T08:24:36.132Z,20.27
2022-12-15T08:27:21.708Z,19.27
2022-12-15T08:30:09.145Z,19.37
2022-12-15T08:32:53.375Z,17.67
2022-12-15T08:35:56.438Z,14.70
2022-12-15T08:38:42.143Z,12.97
2022-12-15T08:41:28.327Z,10.20
2022-12-15T08:44:12.311Z,8.73
2022-12-15T08:46:57.659Z,9.40
2022-12-15T08:49:41.606Z,8.80
2022-12-15T08:52:25.773Z,8.17
2022-12-15T08:55:15.612Z,7.57
2022-12-15T08:58:02.095Z,7.83
2022-12-15T09:00:46.182Z,6.63
2022-12-15T09:03:32.140Z,5.90
2022-12-15T09:06:19.400Z,5.97
2022-12-15T09:09:07.336Z,7.10
2022-12-15T09:11:51.887Z,6.27
2022-12-15T09:14:35.939Z,7.17
2022-12-15T09:17:19.953Z,6.77
2022-12-15T09:20:05.808Z,6.90
2022-12-15T09:22:50.417Z,6.90
2022-12-15T09:25:34.237Z,7.13
2022-12-15T09:28:17.945Z,7.37
2022-12-15T09:31:04.088Z,6.93
2022-12-15T09:33:48.153Z,7.97
2022-12-15T09:36:33.664Z,8.90
2022-12-15T09:39:17.443Z,6.00
2022-12-15T09:42:02.362Z,6.37
2022-12-15T09:44:46.391Z,5.80
2022-12-15T09:47:40.846Z,5.50
2022-12-15T09:50:30.520Z,5.53
2022-12-15T09:53:53.085Z,5.67
2022-12-15T09:56:28.572Z,5.00
2022-12-15T09:59:25.501Z,5.47
2022-12-15T10:02:33.429Z,6.07
2022-12-15T10:05:38.106Z,6.07
2022-12-15T10:08:34.235Z,6.50
2022-12-15T10:11:22.863Z,7.23
2022-12-15T10:14:17.984Z,7.10
2022-12-15T10:17:08.209Z,7.37
2022-12-15T10:19:57.185Z,7.83
2022-12-15T10:22:41.256Z,6.67
2022-12-15T10:25:30.887Z,6.40
2022-12-15T10:28:34.893Z,7.00
2022-12-15T10:31:25.796Z,8.10
2022-12-15T10:34:12.149Z,7.70
2022-12-15T10:36:57.877Z,6.30
2022-12-15T10:39:43.283Z,7.67
2022-12-15T10:42:29.890Z,7.27
2022-12-15T10:45:33.204Z,6.83
2022-12-15T10:48:21.462Z,7.03
2022-12-15T10:51:29.082Z,7.90
2022-12-15T10:54:15.151Z,6.87
2022-12-15T10:57:00.638Z,6.90
2022-12-15T10:59:45.886Z,6.77
2022-12-15T11:02:37.056Z,7.93
2022-12-15T11:05:21.914Z,7.83
2022-12-15T11:08:16.710Z,6.83
2022-12-15T11:11:18.285Z,7.43
2022-12-15T11:14:07.311Z,7.23
2022-12-15T11:16:55.492Z,7.03
2022-12-15T11:19:45.261Z,7.77
2022-12-15T11:22:36.602Z,8.30
2022-12-15T11:25:30.200Z,7.90
2022-12-15T11:28:19.653Z,7.43
2022-12-15T11:31:13.190Z,7.70
2022-12-15T11:33:58.426Z,6.87
2022-12-15T11:37:07.464Z,6.57
2022-12-15T11:40:04.693Z,6.70
2022-12-15T11:43:01.861Z,7.17
2022-12-15T11:45:57.410Z,6.53
2022-12-15T11:48:50.121Z,7.10
2022-12-15T11:51:43.728Z,7.13
2022-12-15T11:54:31.308Z,7.60
2022-12-15T11:57:37.319Z,6.23
2022-12-15T12:00:22.453Z,6.53
2022-12-15T12:03:21.138Z,7.07
2022-12-15T12:06:12.132Z,6.20
2022-12-15T12:09:09.533Z,7.53
2022-12-15T12:11:58.022Z,6.57
2022-12-15T12:14:51.394Z,6.67
2022-12-15T12:17:44.742Z,6.70
2022-12-15T12:20:36.695Z,7.07
2022-12-15T12:23:26.304Z,6.73
2022-12-15T12:26:18.211Z,6.60
2022-12-15T12:29:06.852Z,6.77
2022-12-15T12:32:04.525Z,7.03
2022-12-15T12:35:31.433Z,6.73
2022-12-15T12:38:07.921Z,7.17
2022-12-15T12:41:00.915Z,7.17
2022-12-15T12:43:50.529Z,7.63
2022-12-15T12:46:40.580Z,6.83
2022-12-15T12:49:30.411Z,6.63
2022-12-15T12:52:23.461Z,7.10
2022-12-15T12:55:26.399Z,5.77
2022-12-15T12:58:35.413Z,6.03
2022-12-15T13:01:28.680Z,6.00
2022-12-15T13:04:14.555Z,6.37
2022-12-15T13:07:02.814Z,6.50
2022-12-15T13:10:02.127Z,7.40
2022-12-15T13:12:52.318Z,8.73
2022-12-15T13:15:40.988Z,8.50
2022-12-15T13:18:29.575Z,8.47
2022-12-15T13:21:36.806Z,7.00
2022-12-15T13:24:28.977Z,8.27
2022-12-15T13:27:15.478Z,6.37
2022-12-15T13:30:02.383Z,6.63
2022-12-15T13:32:55.277Z,5.97
2022-12-15T13:35:43.653Z,6.13
2022-12-15T13:38:55.831Z,5.80
2022-12-15T13:41:54.282Z,6.50
2022-12-15T13:44:48.671Z,6.07
2022-12-15T13:47:32.799Z,6.47
2022-12-15T13:50:21.358Z,6.97
2022-12-15T13:53:19.865Z,7.37
2022-12-15T13:56:22.596Z,11.80
2022-12-15T13:59:17.513Z,7.33
2022-12-15T14:02:01.767Z,11.30
2022-12-15T14:04:45.579Z,6.63
2022-12-15T14:07:30.308Z,6.87
2022-12-15T14:10:21.786Z,7.13
2022-12-15T14:13:16.071Z,7.00
2022-12-15T14:16:05.460Z,7.50
2022-12-15T14:19:06.466Z,8.37
2022-12-15T14:21:52.006Z,6.03
2022-12-15T14:24:44.745Z,10.00
2022-12-15T14:27:32.807Z,10.47
2022-12-15T14:30:24.869Z,12.13
2022-12-15T14:33:14.757Z,7.67
2022-12-15T14:36:01.327Z,8.07
2022-12-15T14:38:49.552Z,11.50
2022-12-15T14:41:36.585Z,10.27
2022-12-15T14:44:36.489Z,9.03
2022-12-15T14:47:24.927Z,9.10
2022-12-15T14:50:13.036Z,9.90
2022-12-15T14:53:01.554Z,10.30
2022-12-15T14:55:46.498Z,10.87
2022-12-15T14:58:34.570Z,8.30
2022-12-15T15:01:30.038Z,8.30
2022-12-15T15:04:26.358Z,8.20
2022-12-15T15:07:18.904Z,7.23
2022-12-15T15:10:05.003Z,8.33
2022-12-15T15:12:50.198Z,7.20
2022-12-15T15:15:34.363Z,7.70
2022-12-15T15:18:27.480Z,19.57
2022-12-15T15:21:21.101Z,14.47
2022-12-15T15:24:22.762Z,14.00
2022-12-15T15:27:24.698Z,14.67
2022-12-15T15:30:17.285Z,15.53
2022-12-15T15:33:02.344Z,17.27
2022-12-15T15:35:51.190Z,17.07
2022-12-15T15:38:40.884Z,15.27
2022-12-15T15:41:30.823Z,10.47
2022-12-15T15:44:16.706Z,10.87
2022-12-15T15:47:01.343Z,9.67
2022-12-15T15:49:46.747Z,11.53
2022-12-15T15:52:32.465Z,23.40
2022-12-15T15:55:20.407Z,18.20
2022-12-15T15:58:11.365Z,22.43
2022-12-15T16:00:55.725Z,29.13
2022-12-15T16:03:40.106Z,33.90
2022-12-15T16:06:24.780Z,33.67
2022-12-15T16:09:13.908Z,34.37
2022-12-15T16:11:59.590Z,22.30
2022-12-15T16:14:43.637Z,11.77
2022-12-15T16:17:28.394Z,12.57
2022-12-15T16:20:17.496Z,11.70
2022-12-15T16:23:04.810Z,9.73
2022-12-15T16:25:53.963Z,10.47
2022-12-15T16:28:37.927Z,11.57
2022-12-15T16:31:35.465Z,10.40
2022-12-15T16:34:24.930Z,11.60
2022-12-15T16:37:22.865Z,11.63
2022-12-15T16:40:16.739Z,10.70
2022-12-15T16:43:03.373Z,11.90
2022-12-15T16:45:50.106Z,10.60
2022-12-15T16:48:34.555Z,8.83
2022-12-15T16:51:28.714Z,8.60
2022-12-15T16:54:19.278Z,9.73
2022-12-15T16:57:03.962Z,9.97
2022-12-15T16:59:49.979Z,8.73
2022-12-15T17:02:34.696Z,9.37
2022-12-15T17:05:19.406Z,9.40
2022-12-15T17:08:07.452Z,11.93
2022-12-15T17:10:52.495Z,13.53
2022-12-15T17:13:45.449Z,18.00
2022-12-15T17:16:31.509Z,31.47
2022-12-15T17:19:20.871Z,50.30
2022-12-15T17:22:05.357Z,26.67
2022-12-15T17:24:49.393Z,23.43
2022-12-15T17:27:33.380Z,27.73
2022-12-15T17:30:17.612Z,38.30
2022-12-15T17:33:02.805Z,30.60
2022-12-15T17:35:47.584Z,22.13
2022-12-15T17:38:31.642Z,29.63
2022-12-15T17:41:42.324Z,22.07
2022-12-15T17:44:38.837Z,25.13
2022-12-15T17:47:24.244Z,15.60
2022-12-15T17:50:11.171Z,19.63
2022-12-15T17:52:55.035Z,21.33
2022-12-15T17:55:38.954Z,31.90
2022-12-15T17:58:25.367Z,19.60
2022-12-15T18:01:13.234Z,27.90
2022-12-15T18:03:56.987Z,17.77
2022-12-15T18:06:44.641Z,17.30
2022-12-15T18:09:28.726Z,19.77
2022-12-15T18:12:19.208Z,20.87
2022-12-15T18:15:03.051Z,14.83
2022-12-15T18:17:47.593Z,14.93
2022-12-15T18:20:31.393Z,15.47
2022-12-15T18:23:19.224Z,16.97
2022-12-15T18:26:03.473Z,18.23
2022-12-15T18:28:47.300Z,20.70
2022-12-15T18:31:31.885Z,16.90
2022-12-15T18:34:18.116Z,19.93
2022-12-15T18:37:01.893Z,17.50
2022-12-15T18:39:47.679Z,17.37
2022-12-15T18:42:31.458Z,17.63
2022-12-15T18:45:20.961Z,19.10
2022-12-15T18:48:16.299Z,24.80
2022-12-15T18:51:02.916Z,18.60
2022-12-15T18:53:48.834Z,12.50
2022-12-15T18:56:34.090Z,11.13
2022-12-15T18:59:19.330Z,12.10
2022-12-15T19:02:03.270Z,10.40
2022-12-15T19:04:47.181Z,12.07
2022-12-15T19:07:30.973Z,10.40
2022-12-15T19:10:15.803Z,12.20
2022-12-15T19:13:01.297Z,7.93
2022-12-15T19:15:46.176Z,25.20
2022-12-15T19:18:47.388Z,17.63
2022-12-15T19:21:50.734Z,13.77
2022-12-15T19:24:52.129Z,15.83
2022-12-15T19:27:35.912Z,21.83
2022-12-15T19:30:22.175Z,14.87
2022-12-15T19:33:06.041Z,9.03
2022-12-15T19:35:54.926Z,8.77
2022-12-15T19:38:38.631Z,13.13
2022-12-15T19:41:22.417Z,13.87
2022-12-15T19:44:14.736Z,21.57
2022-12-15T19:46:59.945Z,19.67
2022-12-15T19:49:44.434Z,11.07
2022-12-15T19:52:29.154Z,12.30
2022-12-15T19:55:16.984Z,12.23
2022-12-15T19:58:01.037Z,9.73
2022-12-15T20:00:44.950Z,9.57
2022-12-15T20:03:31.562Z,9.17
2022-12-15T20:06:18.124Z,10.73
2022-12-15T20:09:02.919Z,9.23
2022-12-15T20:11:47.535Z,10.43
2022-12-15T20:14:31.462Z,10.30
2022-12-15T20:17:15.634Z,10.67
2022-12-15T20:20:01.029Z,15.27
2022-12-15T20:22:49.534Z,11.10
2022-12-15T20:25:37.709Z,9.60
2022-12-15T20:28:24.805Z,9.87
2022-12-15T20:31:08.627Z,14.70
2022-12-15T20:33:53.402Z,13.70
2022-12-15T20:36:39.186Z,18.40
2022-12-15T20:39:26.909Z,18.00
2022-12-15T20:42:14.793Z,8.60
2022-12-15T20:44:58.803Z,14.47
2022-12-15T20:47:44.900Z,11.53
2022-12-15T20:50:35.023Z,10.60
2022-12-15T20:53:22.000Z,11.23
2022-12-15T20:56:06.596Z,9.87
2022-12-15T20:58:50.605Z,7.57
2022-12-15T21:01:37.103Z,6.53
2022-12-15T21:04:26.000Z,6.70
2022-12-15T21:07:12.199Z,8.50
2022-12-15T21:09:57.371Z,8.97
2022-12-15T21:12:42.259Z,11.30
2022-12-15T21:15:26.119Z,9.63
2022-12-15T21:18:57.144Z,9.37
2022-12-15T21:21:21.014Z,8.40
2022-12-15T21:24:14.815Z,7.77
2022-12-15T21:27:01.631Z,7.53
2022-12-15T21:29:51.941Z,10.90
2022-12-15T21:32:36.348Z,11.53
2022-12-15T21:35:20.517Z,12.97
2022-12-15T21:38:05.919Z,14.80
2022-12-15T21:40:53.263Z,11.90
2022-12-15T21:43:43.915Z,9.97
2022-12-15T21:46:29.891Z,15.33
2022-12-15T21:49:15.121Z,11.70
2022-12-15T21:52:01.409Z,13.00
2022-12-15T21:54:45.653Z,12.00
2022-12-15T21:57:29.647Z,15.47
2022-12-15T22:00:18.049Z,14.20
2022-12-15T22:03:02.216Z,19.57
2022-12-15T22:05:46.440Z,20.03
2022-12-15T22:08:30.717Z,20.47
2022-12-15T22:11:21.570Z,11.43
2022-12-15T22:14:17.740Z,9.00
2022-12-15T22:17:15.522Z,8.53
2022-12-15T22:19:59.967Z,8.60
2022-12-15T22:22:44.200Z,7.17
2022-12-15T22:25:28.490Z,6.90
2022-12-15T22:28:23.469Z,6.73
2022-12-15T22:31:08.284Z,6.90
2022-12-15T22:33:54.595Z,5.73
2022-12-15T22:36:39.107Z,5.00
2022-12-15T22:39:23.104Z,5.77
2022-12-15T22:42:07.598Z,6.40
2022-12-15T22:44:52.805Z,5.50
2022-12-15T22:47:39.114Z,4.97
2022-12-15T22:50:27.530Z,5.10
2022-12-15T22:53:14.882Z,6.33
2022-12-15T22:56:00.804Z,5.77
2022-12-15T22:58:48.705Z,6.03
2022-12-15T23:01:33.074Z,5.90
2022-12-15T23:04:17.408Z,6.13
2022-12-15T23:07:04.913Z,5.53
2022-12-15T23:09:48.910Z,5.70
2022-12-15T23:12:31.854Z,4.57
2022-12-15T23:15:33.500Z,6.30
2022-12-15T23:18:17.946Z,5.57
2022-12-15T23:21:01.901Z,6.03
2022-12-15T23:23:47.471Z,6.93
2022-12-15T23:26:31.602Z,6.43
2022-12-15T23:29:15.634Z,5.90
2022-12-15T23:31:59.564Z,6.30
2022-12-15T23:34:43.850Z,6.60
2022-12-15T23:37:27.803Z,5.57
2022-12-15T23:40:20.037Z,7.13
2022-12-15T23:43:04.257Z,7.97
2022-12-15T23:45:55.978Z,8.17
2022-12-15T23:48:41.807Z,6.67
2022-12-15T23:51:26.006Z,7.33
2022-12-15T23:54:10.269Z,7.40
2022-12-15T23:56:55.464Z,6.87
2022-12-15T23:59:39.202Z,6.13
